createdAt,value
2023-04-06T00:00:02.001Z,87.54
2023-04-06T00:01:04.442Z,87.54
2023-04-06T00:02:28.479Z,88.70
2023-04-06T00:04:55.109Z,89.01
2023-04-06T00:06:04.435Z,89.01
2023-04-06T00:07:21.745Z,90.10
2023-04-06T00:09:51.006Z,90.45
2023-04-06T00:11:04.447Z,90.45
2023-04-06T00:12:17.476Z,90.37
2023-04-06T00:14:44.146Z,91.53
2023-04-06T00:16:05.286Z,91.53
2023-04-06T00:17:11.160Z,91.80
2023-04-06T00:19:38.079Z,91.86
2023-04-06T00:21:04.437Z,91.86
2023-04-06T00:22:04.593Z,92.08
2023-04-06T00:24:31.168Z,92.35
2023-04-06T00:26:04.451Z,92.35
2023-04-06T00:26:57.634Z,92.63
2023-04-06T00:29:24.563Z,92.87
2023-04-06T00:31:04.488Z,92.87
2023-04-06T00:31:53.510Z,92.88
2023-04-06T00:34:20.283Z,92.88
2023-04-06T00:36:04.442Z,92.88
2023-04-06T00:36:46.812Z,93.74
2023-04-06T00:39:13.308Z,93.66
2023-04-06T00:41:04.461Z,93.66
2023-04-06T00:41:46.872Z,94.06
2023-04-06T00:44:13.405Z,94.50
2023-04-06T00:46:04.607Z,94.50
2023-04-06T00:46:39.890Z,94.66
2023-04-06T00:49:09.351Z,94.17
2023-04-06T00:51:04.471Z,94.17
2023-04-06T00:51:36.078Z,94.49
2023-04-06T00:54:02.858Z,94.17
2023-04-06T00:56:05.641Z,94.17
2023-04-06T00:56:29.808Z,93.15
2023-04-06T00:58:59.993Z,93.91
2023-04-06T01:01:04.457Z,93.91
2023-04-06T01:01:26.755Z,93.96
2023-04-06T01:03:53.628Z,93.34
2023-04-06T01:06:04.465Z,93.34
2023-04-06T01:06:20.439Z,93.60
2023-04-06T01:08:46.881Z,94.24
2023-04-06T01:11:04.431Z,94.24
2023-04-06T01:11:13.325Z,94.56
2023-04-06T01:13:39.729Z,95.03
2023-04-06T01:16:04.503Z,95.03
2023-04-06T01:16:06.601Z,94.62
2023-04-06T01:18:33.107Z,94.80
2023-04-06T01:21:00.560Z,95.21
2023-04-06T01:21:04.442Z,95.21
2023-04-06T01:23:26.986Z,96.59
2023-04-06T01:25:53.465Z,96.65
2023-04-06T01:26:04.429Z,96.65
2023-04-06T01:28:19.927Z,97.40
2023-04-06T01:30:46.434Z,98.06
2023-04-06T01:31:04.501Z,98.06
2023-04-06T01:33:12.825Z,98.79
2023-04-06T01:35:39.322Z,99.76
2023-04-06T01:36:04.536Z,99.76
2023-04-06T01:38:05.844Z,99.35
2023-04-06T01:40:32.234Z,100.00
2023-04-06T01:41:04.502Z,100.00
2023-04-06T01:42:58.681Z,100.00
2023-04-06T01:45:25.398Z,100.00
2023-04-06T01:46:05.533Z,100.00
2023-04-06T01:47:51.926Z,100.00
2023-04-06T01:50:18.352Z,100.00
2023-04-06T01:51:04.445Z,100.00
2023-04-06T01:52:44.682Z,100.00
2023-04-06T01:55:11.205Z,100.00
2023-04-06T01:56:04.463Z,100.00
2023-04-06T01:57:37.715Z,100.00
2023-04-06T02:00:04.676Z,100.00
2023-04-06T02:01:04.490Z,100.00
2023-04-06T02:02:31.678Z,100.00
2023-04-06T02:04:58.196Z,100.00
2023-04-06T02:06:04.475Z,100.00
2023-04-06T02:07:24.648Z,100.00
2023-04-06T02:09:55.765Z,100.00
2023-04-06T02:11:04.513Z,100.00
2023-04-06T02:12:22.345Z,100.00
2023-04-06T02:14:48.679Z,100.00
2023-04-06T02:16:04.502Z,100.00
2023-04-06T02:17:15.322Z,100.00
2023-04-06T02:19:41.924Z,100.00
2023-04-06T02:21:04.609Z,100.00
2023-04-06T02:22:08.351Z,100.00
2023-04-06T02:24:34.729Z,100.00
2023-04-06T02:26:04.522Z,100.00
2023-04-06T02:27:01.572Z,100.00
2023-04-06T02:29:27.978Z,100.00
2023-04-06T02:31:04.498Z,100.00
2023-04-06T02:31:54.459Z,100.00
2023-04-06T02:34:21.068Z,100.00
2023-04-06T02:36:04.517Z,100.00
2023-04-06T02:36:48.115Z,100.00
2023-04-06T02:39:15.023Z,100.00
2023-04-06T02:41:04.518Z,100.00
2023-04-06T02:41:41.461Z,100.00
2023-04-06T02:44:12.098Z,100.00
2023-04-06T02:46:04.696Z,100.00
2023-04-06T02:46:38.488Z,100.00
2023-04-06T02:49:04.981Z,100.00
2023-04-06T02:51:04.516Z,100.00
2023-04-06T02:51:31.420Z,100.00
2023-04-06T02:53:57.865Z,100.00
2023-04-06T02:56:04.509Z,100.00
2023-04-06T02:56:24.256Z,100.00
2023-04-06T02:58:50.845Z,100.00
2023-04-06T03:01:04.539Z,100.00
2023-04-06T03:01:17.630Z,100.00
2023-04-06T03:03:44.250Z,100.00
2023-04-06T03:06:04.480Z,100.00
2023-04-06T03:06:11.041Z,100.00
2023-04-06T03:08:37.573Z,100.00
2023-04-06T03:11:04.022Z,100.00
2023-04-06T03:11:04.491Z,100.00
2023-04-06T03:13:30.468Z,100.00
2023-04-06T03:15:57.271Z,100.00
2023-04-06T03:16:04.549Z,100.00
2023-04-06T03:18:25.862Z,100.00
2023-04-06T03:20:54.889Z,100.00
2023-04-06T03:21:04.474Z,100.00
2023-04-06T03:23:22.104Z,100.00
2023-04-06T03:25:48.610Z,100.00
2023-04-06T03:26:04.756Z,100.00
2023-04-06T03:28:15.606Z,100.00
2023-04-06T03:30:42.034Z,100.00
2023-04-06T03:31:04.517Z,100.00
2023-04-06T03:33:08.490Z,100.00
2023-04-06T03:35:35.013Z,100.00
2023-04-06T03:36:04.554Z,100.00
2023-04-06T03:38:01.481Z,100.00
2023-04-06T03:40:27.916Z,100.00
2023-04-06T03:41:04.495Z,100.00
2023-04-06T03:42:54.318Z,100.00
2023-04-06T03:45:20.741Z,100.00
2023-04-06T03:46:04.557Z,100.00
2023-04-06T03:47:47.363Z,100.00
2023-04-06T03:50:13.766Z,100.00
2023-04-06T03:51:04.477Z,100.00
2023-04-06T03:52:40.227Z,100.00
2023-04-06T03:55:07.471Z,100.00
2023-04-06T03:56:04.938Z,100.00
2023-04-06T03:57:33.987Z,100.00
2023-04-06T04:00:00.785Z,100.00
2023-04-06T04:01:04.508Z,100.00
2023-04-06T04:02:27.350Z,100.00
2023-04-06T04:04:53.896Z,100.00
2023-04-06T04:06:04.509Z,100.00
2023-04-06T04:07:20.452Z,100.00
2023-04-06T04:09:46.830Z,100.00
2023-04-06T04:11:04.514Z,100.00
2023-04-06T04:12:13.216Z,100.00
2023-04-06T04:14:39.633Z,100.00
2023-04-06T04:16:04.568Z,100.00
2023-04-06T04:17:06.151Z,100.00
2023-04-06T04:19:32.540Z,100.00
2023-04-06T04:21:04.509Z,100.00
2023-04-06T04:21:58.973Z,100.00
2023-04-06T04:24:25.409Z,100.00
2023-04-06T04:26:04.552Z,100.00
2023-04-06T04:26:51.801Z,100.00
2023-04-06T04:29:20.953Z,100.00
2023-04-06T04:31:04.505Z,100.00
2023-04-06T04:31:47.448Z,100.00
2023-04-06T04:34:13.936Z,100.00
2023-04-06T04:36:04.559Z,100.00
2023-04-06T04:36:42.475Z,100.00
2023-04-06T04:39:09.408Z,100.00
2023-04-06T04:41:04.532Z,100.00
2023-04-06T04:41:36.319Z,100.00
2023-04-06T04:44:02.706Z,100.00
2023-04-06T04:46:04.639Z,100.00
2023-04-06T04:46:29.269Z,100.00
2023-04-06T04:48:55.832Z,100.00
2023-04-06T04:51:04.518Z,100.00
2023-04-06T04:51:22.248Z,100.00
2023-04-06T04:53:48.615Z,100.00
2023-04-06T04:56:04.514Z,100.00
2023-04-06T04:56:15.048Z,100.00
2023-04-06T04:58:41.376Z,100.00
2023-04-06T05:01:04.556Z,100.00
2023-04-06T05:01:07.957Z,100.00
2023-04-06T05:03:34.773Z,100.00
2023-04-06T05:06:01.389Z,100.00
2023-04-06T05:06:04.499Z,100.00
2023-04-06T05:08:27.830Z,100.00
2023-04-06T05:10:54.462Z,100.00
2023-04-06T05:11:04.521Z,100.00
2023-04-06T05:13:21.131Z,100.00
2023-04-06T05:15:47.608Z,100.00
2023-04-06T05:16:04.589Z,100.00
2023-04-06T05:18:14.053Z,100.00
2023-04-06T05:20:43.310Z,99.29
2023-04-06T05:21:04.525Z,99.29
2023-04-06T05:23:09.826Z,98.45
2023-04-06T05:25:36.554Z,97.23
2023-04-06T05:26:04.507Z,97.23
2023-04-06T05:28:03.110Z,96.73
2023-04-06T05:30:29.572Z,95.65
2023-04-06T05:31:04.609Z,95.65
2023-04-06T05:32:59.565Z,94.85
2023-04-06T05:35:26.077Z,94.23
2023-04-06T05:36:04.567Z,94.23
2023-04-06T05:37:52.570Z,93.64
2023-04-06T05:40:19.066Z,92.77
2023-04-06T05:41:04.524Z,92.77
2023-04-06T05:42:45.584Z,92.05
2023-04-06T05:45:17.588Z,91.07
2023-04-06T05:46:04.618Z,91.07
2023-04-06T05:47:47.466Z,90.17
2023-04-06T05:50:16.211Z,89.93
2023-04-06T05:51:04.517Z,89.93
2023-04-06T05:52:44.175Z,89.21
2023-04-06T05:55:11.540Z,87.96
2023-04-06T05:56:04.508Z,87.96
2023-04-06T05:57:38.086Z,87.07
2023-04-06T06:00:07.735Z,86.43
2023-04-06T06:01:04.517Z,86.43
2023-04-06T06:02:34.327Z,86.39
2023-04-06T06:05:01.186Z,86.12
2023-04-06T06:06:05.589Z,86.12
2023-04-06T06:07:28.628Z,85.85
2023-04-06T06:09:58.740Z,84.40
2023-04-06T06:11:04.555Z,84.40
2023-04-06T06:12:25.262Z,84.04
2023-04-06T06:14:51.733Z,83.72
2023-04-06T06:16:04.538Z,83.72
2023-04-06T06:17:18.159Z,82.94
2023-04-06T06:19:44.623Z,83.22
2023-04-06T06:21:04.508Z,83.22
2023-04-06T06:22:11.321Z,82.55
2023-04-06T06:24:37.748Z,81.34
2023-04-06T06:26:04.527Z,81.34
2023-04-06T06:27:04.511Z,81.26
2023-04-06T06:29:30.868Z,80.16
2023-04-06T06:31:04.539Z,80.16
2023-04-06T06:31:57.431Z,79.34
2023-04-06T06:34:24.184Z,77.93
2023-04-06T06:36:04.592Z,77.93
2023-04-06T06:36:52.370Z,77.74
2023-04-06T06:39:19.241Z,77.26
2023-04-06T06:41:04.526Z,77.26
2023-04-06T06:41:45.651Z,75.80
2023-04-06T06:44:12.207Z,75.14
2023-04-06T06:46:04.609Z,75.14
2023-04-06T06:46:38.776Z,73.33
2023-04-06T06:49:05.283Z,73.16
2023-04-06T06:51:04.545Z,73.16
2023-04-06T06:51:31.831Z,71.16
2023-04-06T06:53:58.305Z,70.42
2023-04-06T06:56:04.495Z,70.42
2023-04-06T06:56:24.757Z,68.27
2023-04-06T06:58:51.344Z,67.13
2023-04-06T07:01:04.515Z,67.13
2023-04-06T07:01:17.995Z,65.54
2023-04-06T07:03:44.422Z,65.06
2023-04-06T07:06:04.518Z,65.06
2023-04-06T07:06:10.924Z,63.50
2023-04-06T07:08:37.520Z,64.26
2023-04-06T07:11:03.948Z,61.29
2023-04-06T07:11:04.608Z,61.29
2023-04-06T07:13:30.416Z,62.26
2023-04-06T07:15:57.074Z,61.95
2023-04-06T07:16:04.582Z,61.95
2023-04-06T07:18:23.497Z,61.13
2023-04-06T07:20:49.991Z,61.38
2023-04-06T07:21:04.569Z,61.38
2023-04-06T07:23:16.568Z,60.45
2023-04-06T07:25:43.091Z,61.12
2023-04-06T07:26:04.521Z,61.12
2023-04-06T07:28:09.568Z,60.84
2023-04-06T07:30:37.547Z,60.38
2023-04-06T07:31:04.530Z,60.38
2023-04-06T07:33:04.219Z,60.66
2023-04-06T07:35:31.187Z,60.57
2023-04-06T07:36:04.550Z,60.57
2023-04-06T07:37:58.012Z,60.61
2023-04-06T07:40:24.522Z,60.82
2023-04-06T07:41:04.524Z,60.82
2023-04-06T07:42:51.240Z,60.11
2023-04-06T07:45:17.698Z,60.44
2023-04-06T07:46:04.664Z,60.44
2023-04-06T07:47:44.211Z,59.42
2023-04-06T07:50:11.369Z,60.04
2023-04-06T07:51:04.553Z,60.04
2023-04-06T07:52:38.585Z,59.33
2023-04-06T07:55:05.517Z,59.59
2023-04-06T07:56:04.557Z,59.59
2023-04-06T07:57:32.029Z,59.71
2023-04-06T07:59:58.480Z,58.12
2023-04-06T08:01:04.592Z,58.12
2023-04-06T08:02:27.326Z,58.18
2023-04-06T08:04:53.993Z,57.96
2023-04-06T08:06:04.519Z,57.96
2023-04-06T08:07:20.654Z,58.16
2023-04-06T08:09:47.074Z,57.76
2023-04-06T08:11:04.555Z,57.76
2023-04-06T08:12:13.531Z,56.95
2023-04-06T08:14:39.900Z,57.98
2023-04-06T08:16:04.593Z,57.98
2023-04-06T08:17:06.675Z,56.59
2023-04-06T08:19:33.456Z,57.60
2023-04-06T08:21:04.538Z,57.60
2023-04-06T08:21:59.923Z,56.40
2023-04-06T08:24:26.589Z,56.63
2023-04-06T08:26:04.572Z,56.63
2023-04-06T08:26:56.138Z,55.84
2023-04-06T08:29:22.584Z,55.28
2023-04-06T08:31:04.591Z,55.28
2023-04-06T08:31:48.977Z,54.94
2023-04-06T08:34:17.923Z,56.21
2023-04-06T08:36:04.567Z,56.21
2023-04-06T08:36:44.426Z,56.09
2023-04-06T08:39:10.872Z,55.36
2023-04-06T08:41:06.403Z,55.36
2023-04-06T08:41:37.409Z,55.28
2023-04-06T08:44:04.372Z,54.62
2023-04-06T08:46:05.717Z,54.62
2023-04-06T08:46:31.794Z,54.33
2023-04-06T08:49:00.232Z,54.74
2023-04-06T08:51:04.523Z,54.74
2023-04-06T08:51:27.963Z,53.65
2023-04-06T08:53:59.162Z,53.60
2023-04-06T08:56:04.566Z,53.60
2023-04-06T08:56:27.575Z,53.46
2023-04-06T08:58:58.206Z,53.06
2023-04-06T09:01:04.567Z,53.06
2023-04-06T09:01:28.571Z,51.89
2023-04-06T09:04:02.240Z,50.92
2023-04-06T09:06:04.543Z,50.92
2023-04-06T09:06:28.968Z,50.84
2023-04-06T09:08:56.104Z,50.85
2023-04-06T09:11:04.551Z,50.85
2023-04-06T09:11:22.645Z,51.19
2023-04-06T09:13:54.086Z,50.92
2023-04-06T09:16:04.631Z,50.92
2023-04-06T09:16:21.135Z,50.48
2023-04-06T09:18:48.919Z,49.76
2023-04-06T09:21:04.558Z,49.76
2023-04-06T09:21:18.673Z,49.89
2023-04-06T09:23:49.545Z,49.47
2023-04-06T09:26:04.570Z,49.47
2023-04-06T09:26:18.217Z,49.25
2023-04-06T09:28:58.824Z,49.24
2023-04-06T09:31:04.563Z,49.24
2023-04-06T09:31:28.885Z,49.38
2023-04-06T09:33:56.024Z,48.01
2023-04-06T09:36:04.550Z,48.01
2023-04-06T09:36:36.821Z,47.75
2023-04-06T09:39:04.397Z,47.55
2023-04-06T09:41:04.554Z,47.55
2023-04-06T09:41:33.230Z,46.96
2023-04-06T09:44:17.799Z,47.94
2023-04-06T09:46:04.647Z,47.94
2023-04-06T09:46:59.822Z,47.13
2023-04-06T09:49:32.267Z,46.71
2023-04-06T09:51:04.594Z,46.71
2023-04-06T09:52:04.176Z,45.71
2023-04-06T09:54:32.564Z,46.61
2023-04-06T09:56:04.583Z,46.61
2023-04-06T09:57:17.494Z,46.58
2023-04-06T10:00:12.263Z,45.91
2023-04-06T10:01:04.666Z,45.91
2023-04-06T10:02:51.041Z,45.98
2023-04-06T10:05:41.994Z,45.34
2023-04-06T10:06:04.547Z,45.34
2023-04-06T10:08:11.327Z,45.11
2023-04-06T10:10:38.750Z,44.69
2023-04-06T10:11:04.565Z,44.69
2023-04-06T10:13:05.821Z,44.23
2023-04-06T10:15:33.013Z,44.45
2023-04-06T10:16:04.596Z,44.45
2023-04-06T10:18:01.252Z,43.46
2023-04-06T10:20:44.457Z,44.25
2023-04-06T10:21:04.548Z,44.25
2023-04-06T10:23:17.696Z,44.31
2023-04-06T10:25:57.748Z,44.02
2023-04-06T10:26:04.622Z,44.02
2023-04-06T10:28:24.885Z,43.59
2023-04-06T10:30:58.582Z,43.39
2023-04-06T10:31:04.830Z,43.39
2023-04-06T10:33:27.015Z,43.97
2023-04-06T10:35:53.636Z,44.22
2023-04-06T10:36:04.591Z,44.22
2023-04-06T10:38:22.865Z,43.10
2023-04-06T10:40:49.921Z,44.54
2023-04-06T10:41:04.620Z,44.54
2023-04-06T10:43:22.025Z,44.28
2023-04-06T10:46:01.276Z,44.24
2023-04-06T10:46:04.699Z,44.24
2023-04-06T10:48:41.499Z,44.14
2023-04-06T10:51:04.617Z,44.14
2023-04-06T10:51:15.869Z,43.89
2023-04-06T10:53:44.675Z,43.83
2023-04-06T10:56:04.582Z,43.83
2023-04-06T10:56:15.574Z,44.10
2023-04-06T10:58:49.952Z,43.26
2023-04-06T11:01:04.621Z,43.26
2023-04-06T11:01:21.184Z,42.70
2023-04-06T11:03:53.899Z,42.80
2023-04-06T11:06:04.572Z,42.80
2023-04-06T11:06:21.115Z,42.55
2023-04-06T11:08:48.098Z,42.00
2023-04-06T11:11:04.610Z,42.00
2023-04-06T11:11:19.179Z,42.89
2023-04-06T11:13:49.320Z,42.59
2023-04-06T11:16:04.546Z,42.59
2023-04-06T11:16:18.265Z,42.89
2023-04-06T11:18:49.548Z,43.78
2023-04-06T11:21:04.594Z,43.78
2023-04-06T11:21:15.996Z,45.36
2023-04-06T11:23:42.370Z,45.51
2023-04-06T11:26:04.558Z,45.51
2023-04-06T11:26:13.633Z,45.08
2023-04-06T11:28:42.958Z,44.81
2023-04-06T11:31:04.572Z,44.81
2023-04-06T11:31:10.588Z,45.12
2023-04-06T11:33:38.742Z,44.20
2023-04-06T11:36:07.640Z,43.71
2023-04-06T11:36:07.949Z,43.71
2023-04-06T11:38:34.146Z,42.65
2023-04-06T11:41:04.440Z,42.66
2023-04-06T11:41:04.611Z,42.66
2023-04-06T11:43:31.669Z,42.90
2023-04-06T11:46:03.451Z,42.54
2023-04-06T11:46:04.799Z,42.54
2023-04-06T11:48:31.085Z,42.91
2023-04-06T11:50:59.338Z,43.18
2023-04-06T11:51:04.566Z,43.18
2023-04-06T11:53:26.384Z,43.82
2023-04-06T11:55:52.840Z,42.56
2023-04-06T11:56:04.644Z,42.56
2023-04-06T11:58:19.281Z,43.07
2023-04-06T12:00:47.497Z,42.41
2023-04-06T12:01:04.571Z,42.41
2023-04-06T12:03:14.684Z,42.93
2023-04-06T12:05:41.554Z,43.26
2023-04-06T12:06:04.581Z,43.26
2023-04-06T12:08:07.932Z,42.76
2023-04-06T12:10:34.400Z,42.06
2023-04-06T12:11:04.573Z,42.06
2023-04-06T12:13:01.135Z,41.53
2023-04-06T12:15:27.783Z,42.26
2023-04-06T12:16:04.637Z,42.26
2023-04-06T12:17:54.230Z,43.29
2023-04-06T12:20:26.596Z,43.71
2023-04-06T12:21:04.589Z,43.71
2023-04-06T12:22:53.880Z,43.95
2023-04-06T12:25:20.588Z,44.22
2023-04-06T12:26:04.614Z,44.22
2023-04-06T12:27:49.499Z,44.58
2023-04-06T12:30:16.353Z,44.07
2023-04-06T12:31:04.628Z,44.07
2023-04-06T12:32:42.784Z,44.39
2023-04-06T12:35:14.036Z,45.47
2023-04-06T12:36:04.579Z,45.47
2023-04-06T12:37:41.112Z,45.65
2023-04-06T12:40:08.167Z,46.20
2023-04-06T12:41:04.623Z,46.20
2023-04-06T12:42:34.577Z,46.53
2023-04-06T12:45:01.176Z,46.01
2023-04-06T12:46:04.691Z,46.01
2023-04-06T12:47:27.916Z,45.50
2023-04-06T12:49:55.759Z,45.10
2023-04-06T12:51:05.656Z,45.10
2023-04-06T12:52:22.225Z,44.38
2023-04-06T12:54:50.119Z,45.26
2023-04-06T12:56:04.554Z,45.26
2023-04-06T12:57:18.065Z,44.68
2023-04-06T12:59:45.748Z,45.68
2023-04-06T13:01:04.581Z,45.68
2023-04-06T13:02:12.527Z,45.33
2023-04-06T13:04:39.009Z,45.67
2023-04-06T13:06:04.568Z,45.67
2023-04-06T13:07:05.728Z,46.28
2023-04-06T13:09:32.116Z,47.40
2023-04-06T13:11:04.569Z,47.40
2023-04-06T13:11:58.597Z,47.70
2023-04-06T13:14:25.354Z,47.28
2023-04-06T13:16:04.690Z,47.28
2023-04-06T13:16:52.249Z,47.52
2023-04-06T13:19:19.180Z,48.04
2023-04-06T13:21:04.616Z,48.04
2023-04-06T13:21:45.826Z,47.59
2023-04-06T13:24:12.328Z,47.29
2023-04-06T13:26:04.684Z,47.29
2023-04-06T13:26:38.797Z,46.97
2023-04-06T13:29:05.489Z,47.60
2023-04-06T13:31:04.570Z,47.60
2023-04-06T13:31:32.438Z,46.82
2023-04-06T13:33:59.407Z,46.20
2023-04-06T13:36:04.602Z,46.20
2023-04-06T13:36:27.656Z,46.79
2023-04-06T13:38:56.162Z,47.37
2023-04-06T13:41:04.644Z,47.37
2023-04-06T13:41:24.225Z,48.93
2023-04-06T13:43:50.847Z,50.77
2023-04-06T13:46:04.636Z,50.77
2023-04-06T13:46:17.862Z,48.66
2023-04-06T13:48:44.726Z,48.80
2023-04-06T13:51:04.643Z,48.80
2023-04-06T13:51:15.006Z,48.82
2023-04-06T13:53:41.928Z,48.53
2023-04-06T13:56:04.597Z,48.53
2023-04-06T13:56:09.141Z,48.52
2023-04-06T13:58:36.940Z,48.22
2023-04-06T14:01:08.355Z,47.80
2023-04-06T14:01:08.985Z,47.80
2023-04-06T14:03:35.204Z,49.16
2023-04-06T14:06:09.279Z,49.49
2023-04-06T14:06:29.789Z,49.49
2023-04-06T14:08:42.537Z,51.12
2023-04-06T14:11:04.562Z,51.12
2023-04-06T14:11:13.142Z,51.89
2023-04-06T14:13:40.495Z,51.98
2023-04-06T14:16:04.588Z,51.98
2023-04-06T14:16:07.948Z,52.75
2023-04-06T14:18:35.310Z,53.36
2023-04-06T14:21:01.725Z,53.79
2023-04-06T14:21:04.631Z,53.79
2023-04-06T14:23:29.549Z,54.54
2023-04-06T14:26:06.873Z,55.60
2023-04-06T14:26:07.013Z,55.60
2023-04-06T14:28:34.316Z,56.61
2023-04-06T14:31:01.933Z,56.99
2023-04-06T14:31:04.570Z,56.99
2023-04-06T14:33:28.464Z,59.94
2023-04-06T14:35:55.051Z,62.07
2023-04-06T14:36:04.605Z,62.07
2023-04-06T14:38:21.654Z,61.78
2023-04-06T14:40:48.070Z,63.49
2023-04-06T14:41:04.597Z,63.49
2023-04-06T14:43:14.682Z,64.81
2023-04-06T14:45:41.098Z,66.87
2023-04-06T14:46:04.625Z,66.87
2023-04-06T14:48:07.807Z,68.01
2023-04-06T14:50:36.558Z,69.81
2023-04-06T14:51:04.663Z,69.81
2023-04-06T14:53:02.932Z,70.20
2023-04-06T14:55:29.399Z,70.36
2023-04-06T14:56:04.622Z,70.36
2023-04-06T14:57:58.247Z,70.80
2023-04-06T15:00:24.672Z,71.51
2023-04-06T15:01:04.626Z,71.51
2023-04-06T15:02:51.216Z,72.46
2023-04-06T15:05:17.919Z,72.97
2023-04-06T15:06:04.611Z,72.97
2023-04-06T15:07:44.279Z,74.71
2023-04-06T15:10:12.294Z,77.34
2023-04-06T15:11:04.606Z,77.34
2023-04-06T15:12:38.969Z,77.74
2023-04-06T15:15:06.218Z,78.87
2023-04-06T15:16:04.687Z,78.87
2023-04-06T15:17:32.689Z,79.48
2023-04-06T15:19:59.256Z,81.56
2023-04-06T15:21:04.596Z,81.56
2023-04-06T15:22:27.989Z,81.34
2023-04-06T15:24:54.334Z,81.57
2023-04-06T15:26:04.602Z,81.57
2023-04-06T15:27:21.722Z,81.10
2023-04-06T15:29:48.251Z,81.95
2023-04-06T15:31:04.622Z,81.95
2023-04-06T15:32:14.767Z,83.51
2023-04-06T15:34:41.332Z,85.63
2023-04-06T15:36:04.636Z,85.63
2023-04-06T15:37:07.988Z,86.42
2023-04-06T15:39:34.504Z,87.25
2023-04-06T15:41:04.603Z,87.25
2023-04-06T15:42:01.190Z,86.95
2023-04-06T15:44:27.571Z,88.97
2023-04-06T15:46:04.747Z,88.97
2023-04-06T15:46:54.033Z,90.77
2023-04-06T15:49:21.178Z,92.19
2023-04-06T15:51:05.682Z,92.19
2023-04-06T15:51:48.864Z,93.36
2023-04-06T15:54:16.309Z,94.16
2023-04-06T15:56:04.608Z,94.16
2023-04-06T15:56:43.133Z,96.26
2023-04-06T15:59:09.500Z,98.24
2023-04-06T16:01:04.596Z,98.24
2023-04-06T16:01:35.943Z,98.75
2023-04-06T16:04:02.581Z,100.00
2023-04-06T16:06:08.726Z,100.00
2023-04-06T16:06:29.159Z,100.00
2023-04-06T16:08:55.662Z,100.00
2023-04-06T16:11:04.587Z,100.00
2023-04-06T16:11:21.974Z,100.00
2023-04-06T16:13:54.692Z,100.00
2023-04-06T16:16:04.724Z,100.00
2023-04-06T16:16:22.214Z,100.00
2023-04-06T16:18:48.660Z,100.00
2023-04-06T16:21:04.599Z,100.00
2023-04-06T16:21:17.684Z,100.00
2023-04-06T16:23:47.724Z,100.00
2023-04-06T16:26:04.655Z,100.00
2023-04-06T16:26:15.504Z,100.00
2023-04-06T16:28:42.555Z,100.00
2023-04-06T16:31:04.621Z,100.00
2023-04-06T16:31:20.007Z,100.00
2023-04-06T16:33:46.891Z,100.00
2023-04-06T16:36:04.640Z,100.00
2023-04-06T16:36:13.438Z,100.00
2023-04-06T16:38:39.983Z,100.00
2023-04-06T16:41:04.635Z,100.00
2023-04-06T16:41:06.819Z,100.00
2023-04-06T16:43:33.282Z,100.00
2023-04-06T16:45:59.694Z,100.00
2023-04-06T16:46:04.731Z,100.00
2023-04-06T16:48:26.207Z,100.00
2023-04-06T16:50:52.696Z,100.00
2023-04-06T16:51:04.711Z,100.00
2023-04-06T16:53:19.125Z,100.00
2023-04-06T16:55:45.661Z,100.00
2023-04-06T16:56:04.602Z,100.00
2023-04-06T16:58:12.039Z,100.00
2023-04-06T17:00:38.479Z,100.00
2023-04-06T17:01:04.697Z,100.00
2023-04-06T17:03:05.096Z,100.00
2023-04-06T17:05:34.545Z,100.00
2023-04-06T17:06:04.592Z,100.00
2023-04-06T17:08:00.927Z,100.00
2023-04-06T17:10:33.410Z,100.00
2023-04-06T17:11:05.085Z,100.00
2023-04-06T17:13:03.616Z,100.00
2023-04-06T17:15:30.019Z,100.00
2023-04-06T17:16:04.602Z,100.00
2023-04-06T17:17:56.457Z,100.00
2023-04-06T17:20:23.048Z,100.00
2023-04-06T17:21:04.650Z,100.00
2023-04-06T17:22:49.543Z,100.00
2023-04-06T17:25:16.566Z,100.00
2023-04-06T17:26:04.618Z,100.00
2023-04-06T17:27:43.651Z,100.00
2023-04-06T17:30:11.415Z,100.00
2023-04-06T17:31:04.643Z,100.00
2023-04-06T17:32:38.190Z,100.00
2023-04-06T17:35:05.037Z,100.00
2023-04-06T17:36:04.615Z,100.00
2023-04-06T17:37:31.879Z,100.00
2023-04-06T17:39:58.354Z,100.00
2023-04-06T17:41:04.641Z,100.00
2023-04-06T17:42:24.816Z,100.00
2023-04-06T17:44:53.126Z,100.00
2023-04-06T17:46:04.636Z,100.00
2023-04-06T17:47:19.913Z,100.00
2023-04-06T17:49:46.579Z,100.00
2023-04-06T17:51:04.714Z,100.00
2023-04-06T17:52:12.931Z,100.00
2023-04-06T17:54:39.351Z,100.00
2023-04-06T17:56:04.671Z,100.00
2023-04-06T17:57:07.581Z,100.00
2023-04-06T17:59:34.232Z,100.00
2023-04-06T18:01:04.644Z,100.00
2023-04-06T18:02:03.041Z,100.00
2023-04-06T18:04:30.055Z,100.00
2023-04-06T18:06:04.607Z,100.00
2023-04-06T18:06:56.613Z,100.00
2023-04-06T18:09:23.000Z,100.00
2023-04-06T18:11:04.640Z,100.00
2023-04-06T18:11:49.404Z,100.00
2023-04-06T18:14:16.389Z,100.00
2023-04-06T18:16:04.679Z,100.00
2023-04-06T18:16:43.060Z,100.00
2023-04-06T18:19:09.780Z,100.00
2023-04-06T18:21:04.630Z,100.00
2023-04-06T18:21:36.962Z,100.00
2023-04-06T18:24:05.135Z,100.00
2023-04-06T18:26:04.666Z,100.00
2023-04-06T18:26:33.785Z,100.00
2023-04-06T18:29:00.483Z,100.00
2023-04-06T18:31:04.707Z,100.00
2023-04-06T18:31:27.008Z,100.00
2023-04-06T18:33:54.497Z,100.00
2023-04-06T18:36:04.602Z,100.00
2023-04-06T18:36:21.355Z,100.00
2023-04-06T18:38:48.563Z,100.00
2023-04-06T18:41:04.590Z,100.00
2023-04-06T18:41:16.446Z,100.00
2023-04-06T18:43:42.886Z,100.00
2023-04-06T18:46:04.623Z,100.00
2023-04-06T18:46:13.588Z,100.00
2023-04-06T18:48:41.213Z,100.00
2023-04-06T18:51:04.622Z,100.00
2023-04-06T18:51:07.863Z,100.00
2023-04-06T18:53:35.793Z,100.00
2023-04-06T18:56:03.743Z,100.00
2023-04-06T18:56:04.628Z,100.00
2023-04-06T18:58:30.282Z,100.00
2023-04-06T19:00:59.638Z,100.00
2023-04-06T19:01:04.632Z,100.00
2023-04-06T19:03:26.515Z,100.00
2023-04-06T19:05:53.002Z,100.00
2023-04-06T19:06:04.600Z,100.00
2023-04-06T19:08:19.364Z,100.00
2023-04-06T19:10:46.050Z,100.00
2023-04-06T19:11:04.625Z,100.00
2023-04-06T19:13:12.490Z,100.00
2023-04-06T19:15:41.356Z,100.00
2023-04-06T19:16:04.652Z,100.00
2023-04-06T19:18:07.853Z,100.00
2023-04-06T19:20:35.022Z,100.00
2023-04-06T19:21:04.650Z,100.00
2023-04-06T19:23:02.878Z,100.00
2023-04-06T19:25:29.451Z,100.00
2023-04-06T19:26:04.662Z,100.00
2023-04-06T19:27:56.586Z,100.00
2023-04-06T19:30:24.088Z,100.00
2023-04-06T19:31:05.780Z,100.00
2023-04-06T19:32:50.532Z,100.00
2023-04-06T19:35:16.951Z,100.00
2023-04-06T19:36:04.654Z,100.00
2023-04-06T19:37:44.114Z,100.00
2023-04-06T19:40:10.906Z,100.00
2023-04-06T19:41:04.611Z,100.00
2023-04-06T19:42:38.667Z,100.00
2023-04-06T19:45:06.541Z,100.00
2023-04-06T19:46:04.796Z,100.00
2023-04-06T19:47:33.156Z,100.00
2023-04-06T19:49:59.552Z,100.00
2023-04-06T19:51:05.758Z,100.00
2023-04-06T19:52:25.898Z,100.00
2023-04-06T19:54:52.329Z,100.00
2023-04-06T19:56:04.667Z,100.00
2023-04-06T19:57:18.710Z,100.00
2023-04-06T19:59:45.227Z,100.00
2023-04-06T20:01:04.673Z,100.00
2023-04-06T20:02:11.808Z,100.00
2023-04-06T20:04:39.175Z,100.00
2023-04-06T20:06:04.817Z,100.00
2023-04-06T20:07:05.949Z,100.00
2023-04-06T20:09:32.328Z,100.00
2023-04-06T20:11:04.641Z,100.00
2023-04-06T20:12:01.387Z,100.00
2023-04-06T20:14:29.125Z,100.00
2023-04-06T20:16:04.640Z,100.00
2023-04-06T20:16:55.589Z,100.00
2023-04-06T20:19:21.988Z,100.00
2023-04-06T20:21:04.599Z,100.00
2023-04-06T20:21:48.503Z,100.00
2023-04-06T20:24:15.709Z,100.00
2023-04-06T20:26:04.609Z,100.00
2023-04-06T20:26:42.030Z,100.00
2023-04-06T20:29:08.434Z,100.00
2023-04-06T20:31:04.635Z,100.00
2023-04-06T20:31:34.858Z,100.00
2023-04-06T20:34:02.045Z,100.00
2023-04-06T20:36:04.640Z,100.00
2023-04-06T20:36:31.270Z,100.00
2023-04-06T20:38:57.753Z,100.00
2023-04-06T20:41:04.627Z,100.00
2023-04-06T20:41:24.181Z,100.00
2023-04-06T20:43:50.705Z,100.00
2023-04-06T20:46:04.654Z,100.00
2023-04-06T20:46:18.222Z,100.00
2023-04-06T20:48:44.679Z,100.00
2023-04-06T20:51:04.761Z,100.00
2023-04-06T20:51:18.068Z,100.00
2023-04-06T20:53:44.510Z,100.00
2023-04-06T20:56:04.644Z,100.00
2023-04-06T20:56:11.002Z,100.00